sensor_id;sensor_type;location;lat;lon;timestamp;pressure;altitude;pressure_sealevel;temperature;humidity
49915;BME280;35806;47.958;13.158;2023-08-06T08:40:45;93869.01;;;15.75;62.08
49915;BME280;35806;47.958;13.158;2023-08-06T08:43:24;93872.15;;;16.04;57.28
49915;BME280;35806;47.958;13.158;2023-08-06T08:45:53;93860.24;;;16.55;58.77
49915;BME280;35806;47.958;13.158;2023-08-06T08:48:30;93858.57;;;15.87;61.78
49915;BME280;35806;47.958;13.158;2023-08-06T08:50:58;93856.74;;;15.65;57.22
49915;BME280;35806;47.958;13.158;2023-08-06T08:53:27;93848.49;;;16.53;58.80
49915;BME280;35806;47.958;13.158;2023-08-06T08:55:55;93850.87;;;16.06;56.82
49915;BME280;35806;47.958;13.158;2023-08-06T08:58:22;93853.15;;;15.47;56.77
49915;BME280;35806;47.958;13.158;2023-08-06T09:00:50;93849.80;;;15.05;57.51
49915;BME280;35806;47.958;13.158;2023-08-06T09:03:17;93855.58;;;15.07;58.02
49915;BME280;35806;47.958;13.158;2023-08-06T09:05:45;93853.29;;;16.03;58.29
49915;BME280;35806;47.958;13.158;2023-08-06T09:08:20;93858.27;;;15.44;59.53
49915;BME280;35806;47.958;13.158;2023-08-06T09:10:48;93861.94;;;14.94;57.37
49915;BME280;35806;47.958;13.158;2023-08-06T09:13:16;93855.52;;;14.78;59.14
49915;BME280;35806;47.958;13.158;2023-08-06T09:15:43;93859.10;;;15.71;57.66
49915;BME280;35806;47.958;13.158;2023-08-06T09:18:12;93856.73;;;15.09;56.91
49915;BME280;35806;47.958;13.158;2023-08-06T09:20:39;93867.18;;;15.35;59.45
49915;BME280;35806;47.958;13.158;2023-08-06T09:23:07;93864.31;;;15.64;58.09
49915;BME280;35806;47.958;13.158;2023-08-06T09:25:38;93874.07;;;15.68;56.64
49915;BME280;35806;47.958;13.158;2023-08-06T09:28:05;93870.46;;;15.96;57.78
49915;BME280;35806;47.958;13.158;2023-08-06T09:30:35;93858.11;;;16.09;56.07
49915;BME280;35806;47.958;13.158;2023-08-06T09:33:02;93855.56;;;16.24;50.70
49915;BME280;35806;47.958;13.158;2023-08-06T09:35:31;93855.93;;;14.13;57.87
49915;BME280;35806;47.958;13.158;2023-08-06T09:38:06;93848.70;;;15.54;59.46
49915;BME280;35806;47.958;13.158;2023-08-06T09:40:33;93847.79;;;15.06;57.62
49915;BME280;35806;47.958;13.158;2023-08-06T09:43:01;93838.62;;;16.18;58.05
49915;BME280;35806;47.958;13.158;2023-08-06T09:45:32;93846.30;;;16.21;57.22
49915;BME280;35806;47.958;13.158;2023-08-06T09:48:00;93846.54;;;16.22;56.17
49915;BME280;35806;47.958;13.158;2023-08-06T09:50:30;93842.34;;;16.47;56.81
49915;BME280;35806;47.958;13.158;2023-08-06T09:52:57;93838.96;;;16.42;55.40
49915;BME280;35806;47.958;13.158;2023-08-06T09:55:25;93832.46;;;16.60;56.36
49915;BME280;35806;47.958;13.158;2023-08-06T09:57:53;93841.28;;;16.78;53.87
49915;BME280;35806;47.958;13.158;2023-08-06T10:00:26;93840.48;;;16.59;54.08
49915;BME280;35806;47.958;13.158;2023-08-06T10:02:55;93853.17;;;17.18;53.89
49915;BME280;35806;47.958;13.158;2023-08-06T10:05:26;93832.11;;;17.07;54.02
49915;BME280;35806;47.958;13.158;2023-08-06T10:07:55;93835.26;;;17.39;54.46
49915;BME280;35806;47.958;13.158;2023-08-06T10:10:25;93832.21;;;17.30;51.04
49915;BME280;35806;47.958;13.158;2023-08-06T10:12:56;93829.25;;;17.31;50.42
49915;BME280;35806;47.958;13.158;2023-08-06T10:15:28;93829.99;;;17.61;51.83
49915;BME280;35806;47.958;13.158;2023-08-06T10:17:58;93835.75;;;17.41;51.69
49915;BME280;35806;47.958;13.158;2023-08-06T10:20:33;93832.53;;;17.09;50.87
49915;BME280;35806;47.958;13.158;2023-08-06T10:23:02;93834.64;;;16.89;51.59
49915;BME280;35806;47.958;13.158;2023-08-06T10:25:31;93828.32;;;17.28;52.23
49915;BME280;35806;47.958;13.158;2023-08-06T10:27:59;93837.85;;;17.03;51.07
49915;BME280;35806;47.958;13.158;2023-08-06T10:30:28;93836.17;;;16.98;49.92
49915;BME280;35806;47.958;13.158;2023-08-06T10:32:56;93836.95;;;17.00;50.31
49915;BME280;35806;47.958;13.158;2023-08-06T10:35:35;93836.30;;;17.30;50.99
49915;BME280;35806;47.958;13.158;2023-08-06T10:38:05;93844.38;;;17.30;50.37
49915;BME280;35806;47.958;13.158;2023-08-06T10:40:33;93826.15;;;16.65;51.02
49915;BME280;35806;47.958;13.158;2023-08-06T10:43:00;93832.18;;;16.55;51.11
49915;BME280;35806;47.958;13.158;2023-08-06T10:45:28;93833.27;;;15.51;50.54
49915;BME280;35806;47.958;13.158;2023-08-06T10:47:55;93844.20;;;16.13;52.99
49915;BME280;35806;47.958;13.158;2023-08-06T10:50:23;93846.77;;;14.38;57.12
49915;BME280;35806;47.958;13.158;2023-08-06T10:52:50;93840.66;;;15.24;56.63
49915;BME280;35806;47.958;13.158;2023-08-06T10:55:29;93849.34;;;13.92;56.83
49915;BME280;35806;47.958;13.158;2023-08-06T10:57:56;93855.74;;;14.67;59.39
49915;BME280;35806;47.958;13.158;2023-08-06T11:00:24;93860.78;;;14.57;58.27
49915;BME280;35806;47.958;13.158;2023-08-06T11:02:52;93862.89;;;14.28;59.60
49915;BME280;35806;47.958;13.158;2023-08-06T11:05:20;93863.71;;;14.84;59.92
49915;BME280;35806;47.958;13.158;2023-08-06T11:07:48;93868.39;;;14.49;60.08
49915;BME280;35806;47.958;13.158;2023-08-06T11:10:15;93876.84;;;14.72;60.22
49915;BME280;35806;47.958;13.158;2023-08-06T11:12:43;93879.88;;;14.79;59.97
49915;BME280;35806;47.958;13.158;2023-08-06T11:15:10;93882.26;;;14.42;61.93
49915;BME280;35806;47.958;13.158;2023-08-06T11:17:39;93881.06;;;14.52;60.65
49915;BME280;35806;47.958;13.158;2023-08-06T11:20:08;93881.57;;;14.01;59.32
49915;BME280;35806;47.958;13.158;2023-08-06T11:22:36;93877.71;;;14.01;61.13
49915;BME280;35806;47.958;13.158;2023-08-06T11:25:05;93882.57;;;14.77;60.29
49915;BME280;35806;47.958;13.158;2023-08-06T11:27:33;93884.00;;;14.11;63.09
49915;BME280;35806;47.958;13.158;2023-08-06T11:30:01;93887.76;;;14.88;59.42
49915;BME280;35806;47.958;13.158;2023-08-06T11:32:28;93882.56;;;14.69;61.43
49915;BME280;35806;47.958;13.158;2023-08-06T11:34:56;93882.68;;;15.29;58.57
49915;BME280;35806;47.958;13.158;2023-08-06T11:37:23;93879.18;;;13.65;62.99
49915;BME280;35806;47.958;13.158;2023-08-06T11:39:51;93877.23;;;13.91;63.90
49915;BME280;35806;47.958;13.158;2023-08-06T11:42:19;93875.16;;;13.31;60.60
49915;BME280;35806;47.958;13.158;2023-08-06T11:44:47;93878.79;;;14.76;58.76
49915;BME280;35806;47.958;13.158;2023-08-06T11:47:19;93873.63;;;14.90;57.83
49915;BME280;35806;47.958;13.158;2023-08-06T11:49:47;93873.26;;;14.95;59.80
49915;BME280;35806;47.958;13.158;2023-08-06T11:52:19;93873.14;;;14.18;60.34
49915;BME280;35806;47.958;13.158;2023-08-06T11:54:47;93874.76;;;13.48;58.81
49915;BME280;35806;47.958;13.158;2023-08-06T11:57:16;93869.65;;;14.54;60.38
49915;BME280;35806;47.958;13.158;2023-08-06T11:59:43;93871.08;;;14.36;57.00
49915;BME280;35806;47.958;13.158;2023-08-06T12:02:10;93880.50;;;14.24;59.03
49915;BME280;35806;47.958;13.158;2023-08-06T12:05:11;93873.43;;;13.88;58.45
49915;BME280;35806;47.958;13.158;2023-08-06T12:07:41;93876.76;;;13.20;56.94
49915;BME280;35806;47.958;13.158;2023-08-06T12:10:08;93876.50;;;12.89;58.62
49915;BME280;35806;47.958;13.158;2023-08-06T12:12:36;93876.08;;;13.65;59.64
49915;BME280;35806;47.958;13.158;2023-08-06T12:15:04;93876.02;;;12.72;57.37
49915;BME280;35806;47.958;13.158;2023-08-06T12:17:32;93878.02;;;13.27;58.36
49915;BME280;35806;47.958;13.158;2023-08-06T12:19:59;93874.89;;;14.41;59.18
49915;BME280;35806;47.958;13.158;2023-08-06T12:22:27;93878.60;;;14.92;56.98
49915;BME280;35806;47.958;13.158;2023-08-06T12:24:53;93876.19;;;15.69;55.73
49915;BME280;35806;47.958;13.158;2023-08-06T12:27:21;93873.88;;;15.46;56.28
49915;BME280;35806;47.958;13.158;2023-08-06T12:29:48;93873.85;;;15.70;54.31
49915;BME280;35806;47.958;13.158;2023-08-06T12:32:17;93881.08;;;15.20;51.39
49915;BME280;35806;47.958;13.158;2023-08-06T12:34:43;93891.95;;;15.43;52.38
49915;BME280;35806;47.958;13.158;2023-08-06T12:37:11;93882.05;;;15.62;50.76
49915;BME280;35806;47.958;13.158;2023-08-06T12:39:39;93889.50;;;14.33;51.23
49915;BME280;35806;47.958;13.158;2023-08-06T12:42:06;93890.41;;;13.92;54.27
49915;BME280;35806;47.958;13.158;2023-08-06T12:44:34;93886.91;;;14.88;55.16
49915;BME280;35806;47.958;13.158;2023-08-06T12:47:01;93886.42;;;15.93;55.81
49915;BME280;35806;47.958;13.158;2023-08-06T12:49:29;93906.08;;;15.00;51.80
49915;BME280;35806;47.958;13.158;2023-08-06T12:51:56;93894.83;;;15.50;54.03
49915;BME280;35806;47.958;13.158;2023-08-06T12:54:24;93895.39;;;15.58;52.25
49915;BME280;35806;47.958;13.158;2023-08-06T12:56:52;93892.68;;;16.77;52.60
49915;BME280;35806;47.958;13.158;2023-08-06T12:59:19;93886.89;;;16.72;51.01
49915;BME280;35806;47.958;13.158;2023-08-06T13:01:46;93879.80;;;16.42;49.13
49915;BME280;35806;47.958;13.158;2023-08-06T13:04:14;93894.48;;;16.36;50.42
49915;BME280;35806;47.958;13.158;2023-08-06T13:06:41;93898.93;;;16.24;49.81
49915;BME280;35806;47.958;13.158;2023-08-06T13:09:09;93901.33;;;15.93;49.50
49915;BME280;35806;47.958;13.158;2023-08-06T13:11:37;93909.17;;;16.09;49.02
49915;BME280;35806;47.958;13.158;2023-08-06T13:14:06;93916.23;;;15.16;48.32
49915;BME280;35806;47.958;13.158;2023-08-06T13:16:33;93908.23;;;15.80;50.41
49915;BME280;35806;47.958;13.158;2023-08-06T13:19:01;93912.60;;;15.79;50.13
49915;BME280;35806;47.958;13.158;2023-08-06T13:21:32;93915.32;;;16.36;49.13
49915;BME280;35806;47.958;13.158;2023-08-06T13:23:59;93918.61;;;15.98;47.59
49915;BME280;35806;47.958;13.158;2023-08-06T13:26:27;93927.35;;;15.38;49.61
49915;BME280;35806;47.958;13.158;2023-08-06T13:28:56;93924.73;;;15.73;50.23
49915;BME280;35806;47.958;13.158;2023-08-06T13:31:24;93944.92;;;15.41;49.49
49915;BME280;35806;47.958;13.158;2023-08-06T13:33:51;93938.12;;;15.10;49.30
49915;BME280;35806;47.958;13.158;2023-08-06T13:36:18;93934.66;;;13.39;56.41
49915;BME280;35806;47.958;13.158;2023-08-06T13:38:45;93937.36;;;14.76;51.82
49915;BME280;35806;47.958;13.158;2023-08-06T13:41:12;93937.28;;;15.59;52.45
49915;BME280;35806;47.958;13.158;2023-08-06T13:43:39;93933.70;;;13.43;53.58
49915;BME280;35806;47.958;13.158;2023-08-06T13:46:18;93937.77;;;14.85;53.43
49915;BME280;35806;47.958;13.158;2023-08-06T13:48:47;93944.65;;;14.66;52.36
49915;BME280;35806;47.958;13.158;2023-08-06T13:51:15;93942.43;;;14.50;52.19
49915;BME280;35806;47.958;13.158;2023-08-06T13:53:42;93942.17;;;15.10;51.70
49915;BME280;35806;47.958;13.158;2023-08-06T13:56:10;93945.25;;;15.11;51.52
49915;BME280;35806;47.958;13.158;2023-08-06T13:58:37;93940.84;;;15.81;49.71
49915;BME280;35806;47.958;13.158;2023-08-06T14:01:04;93948.30;;;16.11;50.33
49915;BME280;35806;47.958;13.158;2023-08-06T14:03:32;93951.11;;;15.41;49.31
49915;BME280;35806;47.958;13.158;2023-08-06T14:05:59;93947.78;;;16.22;49.80
49915;BME280;35806;47.958;13.158;2023-08-06T14:08:27;93946.59;;;15.79;50.89
49915;BME280;35806;47.958;13.158;2023-08-06T14:10:54;93950.78;;;15.01;49.65
49915;BME280;35806;47.958;13.158;2023-08-06T14:13:22;93954.40;;;15.14;51.07
49915;BME280;35806;47.958;13.158;2023-08-06T14:15:49;93962.76;;;15.58;51.53
49915;BME280;35806;47.958;13.158;2023-08-06T14:18:17;93961.47;;;15.71;50.74
49915;BME280;35806;47.958;13.158;2023-08-06T14:20:44;93964.54;;;16.26;48.88
49915;BME280;35806;47.958;13.158;2023-08-06T14:23:11;93967.37;;;16.40;47.45
49915;BME280;35806;47.958;13.158;2023-08-06T14:25:39;93962.78;;;16.81;48.49
49915;BME280;35806;47.958;13.158;2023-08-06T14:28:07;93968.23;;;16.26;48.01
49915;BME280;35806;47.958;13.158;2023-08-06T14:30:34;93974.10;;;16.14;46.61
49915;BME280;35806;47.958;13.158;2023-08-06T14:33:01;93995.26;;;15.86;48.55
49915;BME280;35806;47.958;13.158;2023-08-06T14:35:29;93986.27;;;15.37;49.64
49915;BME280;35806;47.958;13.158;2023-08-06T14:37:56;94004.15;;;15.65;49.10
49915;BME280;35806;47.958;13.158;2023-08-06T14:40:24;94000.96;;;15.16;52.10
49915;BME280;35806;47.958;13.158;2023-08-06T14:42:50;93993.81;;;15.85;50.15
49915;BME280;35806;47.958;13.158;2023-08-06T14:45:18;94009.74;;;15.59;50.44
49915;BME280;35806;47.958;13.158;2023-08-06T14:47:45;94007.07;;;15.91;48.43
49915;BME280;35806;47.958;13.158;2023-08-06T14:50:13;94003.62;;;16.57;47.28
49915;BME280;35806;47.958;13.158;2023-08-06T14:52:40;94011.55;;;15.32;50.55
49915;BME280;35806;47.958;13.158;2023-08-06T14:55:08;94018.61;;;14.53;50.10
49915;BME280;35806;47.958;13.158;2023-08-06T14:57:35;94021.97;;;14.86;50.65
49915;BME280;35806;47.958;13.158;2023-08-06T15:00:04;94018.71;;;14.95;50.19
49915;BME280;35806;47.958;13.158;2023-08-06T15:02:31;94023.00;;;13.87;52.44
49915;BME280;35806;47.958;13.158;2023-08-06T15:04:58;94034.01;;;15.49;48.06
49915;BME280;35806;47.958;13.158;2023-08-06T15:07:25;94032.23;;;15.47;48.67
49915;BME280;35806;47.958;13.158;2023-08-06T15:09:53;94041.47;;;14.63;50.18
49915;BME280;35806;47.958;13.158;2023-08-06T15:12:21;94038.89;;;14.77;51.33
49915;BME280;35806;47.958;13.158;2023-08-06T15:14:48;94036.51;;;15.33;50.95
49915;BME280;35806;47.958;13.158;2023-08-06T15:17:16;94035.68;;;15.11;49.82
49915;BME280;35806;47.958;13.158;2023-08-06T15:19:43;94040.68;;;14.85;51.32
49915;BME280;35806;47.958;13.158;2023-08-06T15:22:11;94052.79;;;14.73;51.08
49915;BME280;35806;47.958;13.158;2023-08-06T15:24:38;94058.05;;;15.17;51.10
49915;BME280;35806;47.958;13.158;2023-08-06T15:27:06;94059.45;;;15.22;50.78
49915;BME280;35806;47.958;13.158;2023-08-06T15:29:33;94059.52;;;15.02;50.82
49915;BME280;35806;47.958;13.158;2023-08-06T15:32:02;94061.31;;;15.18;51.69
49915;BME280;35806;47.958;13.158;2023-08-06T15:34:28;94064.98;;;14.45;52.05
49915;BME280;35806;47.958;13.158;2023-08-06T15:36:56;94065.42;;;14.64;53.03
49915;BME280;35806;47.958;13.158;2023-08-06T15:39:23;94069.74;;;14.74;52.04
49915;BME280;35806;47.958;13.158;2023-08-06T15:41:51;94064.94;;;14.93;52.62
49915;BME280;35806;47.958;13.158;2023-08-06T15:44:18;94064.13;;;14.62;53.16
49915;BME280;35806;47.958;13.158;2023-08-06T15:46:45;94073.93;;;14.69;51.76
49915;BME280;35806;47.958;13.158;2023-08-06T15:49:13;94072.21;;;14.89;52.15
49915;BME280;35806;47.958;13.158;2023-08-06T15:51:41;94077.86;;;14.90;52.49
49915;BME280;35806;47.958;13.158;2023-08-06T15:54:13;94076.63;;;15.04;51.43
49915;BME280;35806;47.958;13.158;2023-08-06T15:56:41;94081.55;;;15.02;51.45
49915;BME280;35806;47.958;13.158;2023-08-06T15:59:25;94086.47;;;14.94;53.55
49915;BME280;35806;47.958;13.158;2023-08-06T16:01:53;94087.53;;;14.86;51.60
49915;BME280;35806;47.958;13.158;2023-08-06T16:04:20;94089.37;;;14.74;51.89
49915;BME280;35806;47.958;13.158;2023-08-06T16:06:48;94090.35;;;14.87;52.88
49915;BME280;35806;47.958;13.158;2023-08-06T16:09:15;94088.46;;;14.85;52.93
49915;BME280;35806;47.958;13.158;2023-08-06T16:11:43;94097.73;;;15.32;51.61
49915;BME280;35806;47.958;13.158;2023-08-06T16:14:11;94113.65;;;14.99;52.36
49915;BME280;35806;47.958;13.158;2023-08-06T16:16:40;94102.65;;;14.98;52.69
49915;BME280;35806;47.958;13.158;2023-08-06T16:19:07;94109.84;;;14.81;52.30
49915;BME280;35806;47.958;13.158;2023-08-06T16:21:35;94110.37;;;14.80;52.04
49915;BME280;35806;47.958;13.158;2023-08-06T16:24:02;94105.37;;;13.99;54.04
49915;BME280;35806;47.958;13.158;2023-08-06T16:26:30;94111.18;;;12.92;57.45
49915;BME280;35806;47.958;13.158;2023-08-06T16:28:57;94116.27;;;13.86;56.00
49915;BME280;35806;47.958;13.158;2023-08-06T16:31:25;94112.52;;;13.87;55.95
49915;BME280;35806;47.958;13.158;2023-08-06T16:33:52;94122.13;;;13.73;56.67
49915;BME280;35806;47.958;13.158;2023-08-06T16:36:20;94118.76;;;13.51;56.11
49915;BME280;35806;47.958;13.158;2023-08-06T16:38:48;94126.76;;;13.35;58.42
49915;BME280;35806;47.958;13.158;2023-08-06T16:41:15;94128.81;;;14.01;56.79
49915;BME280;35806;47.958;13.158;2023-08-06T16:43:43;94137.55;;;13.44;57.71
49915;BME280;35806;47.958;13.158;2023-08-06T16:46:10;94140.66;;;13.16;58.05
49915;BME280;35806;47.958;13.158;2023-08-06T16:48:38;94145.79;;;13.42;58.97
49915;BME280;35806;47.958;13.158;2023-08-06T16:51:05;94141.23;;;13.20;59.35
49915;BME280;35806;47.958;13.158;2023-08-06T16:53:38;94144.15;;;12.83;61.35
49915;BME280;35806;47.958;13.158;2023-08-06T16:56:05;94157.34;;;13.00;60.62
49915;BME280;35806;47.958;13.158;2023-08-06T16:58:32;94168.72;;;12.39;62.33
49915;BME280;35806;47.958;13.158;2023-08-06T17:01:00;94168.13;;;12.65;63.74
49915;BME280;35806;47.958;13.158;2023-08-06T17:03:27;94166.87;;;12.42;62.59
49915;BME280;35806;47.958;13.158;2023-08-06T17:05:55;94172.26;;;12.46;63.91
49915;BME280;35806;47.958;13.158;2023-08-06T17:08:22;94178.16;;;12.03;64.94
49915;BME280;35806;47.958;13.158;2023-08-06T17:10:50;94173.24;;;12.27;65.18
49915;BME280;35806;47.958;13.158;2023-08-06T17:13:17;94179.18;;;12.26;64.01
49915;BME280;35806;47.958;13.158;2023-08-06T17:15:45;94175.22;;;12.56;64.53
49915;BME280;35806;47.958;13.158;2023-08-06T17:18:12;94181.74;;;12.60;64.98
49915;BME280;35806;47.958;13.158;2023-08-06T17:20:41;94188.67;;;11.89;66.62
49915;BME280;35806;47.958;13.158;2023-08-06T17:23:08;94182.82;;;11.76;66.55
49915;BME280;35806;47.958;13.158;2023-08-06T17:25:35;94182.41;;;11.54;67.05
49915;BME280;35806;47.958;13.158;2023-08-06T17:28:03;94186.25;;;12.01;67.63
49915;BME280;35806;47.958;13.158;2023-08-06T17:30:31;94181.25;;;11.33;69.63
49915;BME280;35806;47.958;13.158;2023-08-06T17:32:58;94184.01;;;11.58;69.17
49915;BME280;35806;47.958;13.158;2023-08-06T17:35:25;94190.51;;;11.65;68.01
49915;BME280;35806;47.958;13.158;2023-08-06T17:37:53;94194.98;;;11.42;69.82
49915;BME280;35806;47.958;13.158;2023-08-06T17:40:20;94197.02;;;11.84;68.63
49915;BME280;35806;47.958;13.158;2023-08-06T17:42:48;94197.03;;;11.31;70.56
49915;BME280;35806;47.958;13.158;2023-08-06T17:45:16;94199.77;;;11.81;68.97
49915;BME280;35806;47.958;13.158;2023-08-06T17:47:43;94193.17;;;11.68;70.06
49915;BME280;35806;47.958;13.158;2023-08-06T17:50:11;94200.65;;;11.78;69.95
49915;BME280;35806;47.958;13.158;2023-08-06T17:52:38;94201.29;;;11.86;70.07
49915;BME280;35806;47.958;13.158;2023-08-06T17:55:07;94189.97;;;10.94;72.16
49915;BME280;35806;47.958;13.158;2023-08-06T17:57:34;94204.27;;;11.61;70.03
49915;BME280;35806;47.958;13.158;2023-08-06T18:00:02;94203.80;;;11.11;71.71
49915;BME280;35806;47.958;13.158;2023-08-06T18:02:29;94204.67;;;11.28;71.03
49915;BME280;35806;47.958;13.158;2023-08-06T18:04:57;94203.71;;;11.52;70.51
49915;BME280;35806;47.958;13.158;2023-08-06T18:07:25;94204.85;;;11.26;71.87
49915;BME280;35806;47.958;13.158;2023-08-06T18:09:52;94204.71;;;11.18;72.69
49915;BME280;35806;47.958;13.158;2023-08-06T18:12:19;94207.81;;;11.21;70.92
49915;BME280;35806;47.958;13.158;2023-08-06T18:14:46;94206.96;;;11.44;71.58
49915;BME280;35806;47.958;13.158;2023-08-06T18:17:14;94211.45;;;11.24;72.48
49915;BME280;35806;47.958;13.158;2023-08-06T18:19:41;94216.40;;;11.27;70.79
49915;BME280;35806;47.958;13.158;2023-08-06T18:22:08;94220.42;;;11.32;72.78
49915;BME280;35806;47.958;13.158;2023-08-06T18:24:35;94222.68;;;11.50;71.03
49915;BME280;35806;47.958;13.158;2023-08-06T18:27:03;94220.69;;;11.35;72.86
49915;BME280;35806;47.958;13.158;2023-08-06T18:29:30;94229.87;;;11.53;70.66
49915;BME280;35806;47.958;13.158;2023-08-06T18:31:57;94225.57;;;12.29;70.19
49915;BME280;35806;47.958;13.158;2023-08-06T18:34:25;94224.90;;;11.96;70.23
49915;BME280;35806;47.958;13.158;2023-08-06T18:36:53;94226.92;;;11.44;71.58
49915;BME280;35806;47.958;13.158;2023-08-06T18:39:20;94231.05;;;11.94;70.29
49915;BME280;35806;47.958;13.158;2023-08-06T18:41:48;94239.87;;;11.45;71.73
49915;BME280;35806;47.958;13.158;2023-08-06T18:44:16;94243.57;;;11.79;70.45
49915;BME280;35806;47.958;13.158;2023-08-06T18:46:43;94240.42;;;11.15;71.93
49915;BME280;35806;47.958;13.158;2023-08-06T18:49:10;94247.24;;;11.38;71.41
49915;BME280;35806;47.958;13.158;2023-08-06T18:51:38;94249.90;;;10.56;73.73
49915;BME280;35806;47.958;13.158;2023-08-06T18:54:06;94258.50;;;10.76;72.15
49915;BME280;35806;47.958;13.158;2023-08-06T18:56:33;94257.47;;;10.74;72.53
49915;BME280;35806;47.958;13.158;2023-08-06T18:59:01;94264.44;;;10.57;72.93
49915;BME280;35806;47.958;13.158;2023-08-06T19:01:28;94275.80;;;10.17;73.93
49915;BME280;35806;47.958;13.158;2023-08-06T19:03:56;94275.96;;;10.89;72.51
49915;BME280;35806;47.958;13.158;2023-08-06T19:06:23;94281.22;;;10.35;73.18
49915;BME280;35806;47.958;13.158;2023-08-06T19:08:51;94280.83;;;10.56;73.60
49915;BME280;35806;47.958;13.158;2023-08-06T19:11:18;94286.28;;;10.39;72.69
49915;BME280;35806;47.958;13.158;2023-08-06T19:13:45;94287.20;;;10.64;71.88
49915;BME280;35806;47.958;13.158;2023-08-06T19:16:13;94288.96;;;10.75;71.77
49915;BME280;35806;47.958;13.158;2023-08-06T19:18:40;94285.65;;;10.82;71.08
49915;BME280;35806;47.958;13.158;2023-08-06T19:21:08;94291.93;;;9.48;73.26
49915;BME280;35806;47.958;13.158;2023-08-06T19:23:35;94293.50;;;10.44;73.51
49915;BME280;35806;47.958;13.158;2023-08-06T19:26:01;94296.51;;;10.64;71.39
49915;BME280;35806;47.958;13.158;2023-08-06T19:28:29;94293.82;;;10.27;72.91
49915;BME280;35806;47.958;13.158;2023-08-06T19:30:58;94297.45;;;10.56;73.18
49915;BME280;35806;47.958;13.158;2023-08-06T19:33:25;94293.15;;;10.36;72.96
49915;BME280;35806;47.958;13.158;2023-08-06T19:35:53;94287.44;;;10.67;71.22
49915;BME280;35806;47.958;13.158;2023-08-06T19:38:21;94291.52;;;10.69;71.43
49915;BME280;35806;47.958;13.158;2023-08-06T19:40:49;94286.55;;;11.34;69.85
49915;BME280;35806;47.958;13.158;2023-08-06T19:43:17;94284.79;;;11.34;69.28
49915;BME280;35806;47.958;13.158;2023-08-06T19:45:47;94281.77;;;11.05;69.61
49915;BME280;35806;47.958;13.158;2023-08-06T19:48:15;94292.29;;;11.23;68.58
49915;BME280;35806;47.958;13.158;2023-08-06T19:50:50;94288.95;;;10.63;70.47
49915;BME280;35806;47.958;13.158;2023-08-06T19:53:18;94287.73;;;10.45;71.16
49915;BME280;35806;47.958;13.158;2023-08-06T19:55:45;94292.04;;;10.03;73.50
49915;BME280;35806;47.958;13.158;2023-08-06T19:58:13;94290.41;;;9.42;74.53
49915;BME280;35806;47.958;13.158;2023-08-06T20:00:39;94288.84;;;9.95;73.05
49915;BME280;35806;47.958;13.158;2023-08-06T20:03:06;94293.88;;;10.88;70.87
49915;BME280;35806;47.958;13.158;2023-08-06T20:05:34;94288.61;;;10.36;71.77
49915;BME280;35806;47.958;13.158;2023-08-06T20:08:01;94286.68;;;10.17;72.77
49915;BME280;35806;47.958;13.158;2023-08-06T20:10:28;94292.64;;;10.69;70.04
49915;BME280;35806;47.958;13.158;2023-08-06T20:12:55;94291.75;;;9.80;73.79
49915;BME280;35806;47.958;13.158;2023-08-06T20:15:22;94290.56;;;10.35;69.54
49915;BME280;35806;47.958;13.158;2023-08-06T20:17:50;94285.48;;;10.10;71.59
49915;BME280;35806;47.958;13.158;2023-08-06T20:20:18;94295.19;;;9.78;72.23
49915;BME280;35806;47.958;13.158;2023-08-06T20:22:45;94299.96;;;10.46;70.94
49915;BME280;35806;47.958;13.158;2023-08-06T20:25:13;94292.49;;;9.91;72.36
49915;BME280;35806;47.958;13.158;2023-08-06T20:27:40;94288.45;;;10.62;68.58
49915;BME280;35806;47.958;13.158;2023-08-06T20:30:09;94292.12;;;10.13;71.48
49915;BME280;35806;47.958;13.158;2023-08-06T20:32:36;94288.50;;;9.95;69.32
49915;BME280;35806;47.958;13.158;2023-08-06T20:35:05;94291.21;;;10.13;69.69
49915;BME280;35806;47.958;13.158;2023-08-06T20:37:33;94290.13;;;10.75;68.73
49915;BME280;35806;47.958;13.158;2023-08-06T20:40:01;94288.78;;;10.85;66.96
49915;BME280;35806;47.958;13.158;2023-08-06T20:42:28;94284.58;;;10.56;66.95
49915;BME280;35806;47.958;13.158;2023-08-06T20:44:56;94290.64;;;10.12;66.78
49915;BME280;35806;47.958;13.158;2023-08-06T20:47:23;94284.31;;;10.23;65.58
49915;BME280;35806;47.958;13.158;2023-08-06T20:49:51;94286.00;;;10.66;65.12
49915;BME280;35806;47.958;13.158;2023-08-06T20:52:18;94282.21;;;10.83;63.67
49915;BME280;35806;47.958;13.158;2023-08-06T20:54:45;94286.41;;;11.34;63.00
49915;BME280;35806;47.958;13.158;2023-08-06T20:57:12;94286.97;;;10.90;63.94
49915;BME280;35806;47.958;13.158;2023-08-06T20:59:40;94281.92;;;11.17;65.05
49915;BME280;35806;47.958;13.158;2023-08-06T21:02:07;94290.22;;;11.84;62.81
49915;BME280;35806;47.958;13.158;2023-08-06T21:04:35;94293.45;;;11.74;62.54
49915;BME280;35806;47.958;13.158;2023-08-06T21:07:03;94286.64;;;11.72;62.33
49915;BME280;35806;47.958;13.158;2023-08-06T21:09:30;94283.48;;;11.35;61.73
49915;BME280;35806;47.958;13.158;2023-08-06T21:11:57;94287.26;;;11.46;61.71
49915;BME280;35806;47.958;13.158;2023-08-06T21:14:40;94284.52;;;11.74;61.81
49915;BME280;35806;47.958;13.158;2023-08-06T21:17:07;94292.06;;;11.83;60.89
49915;BME280;35806;47.958;13.158;2023-08-06T21:19:35;94285.79;;;11.52;62.27
49915;BME280;35806;47.958;13.158;2023-08-06T21:22:03;94289.17;;;11.74;60.15
49915;BME280;35806;47.958;13.158;2023-08-06T21:24:30;94297.35;;;11.93;60.34
49915;BME280;35806;47.958;13.158;2023-08-06T21:26:58;94296.18;;;11.78;60.12
49915;BME280;35806;47.958;13.158;2023-08-06T21:29:24;94296.85;;;11.30;60.13
49915;BME280;35806;47.958;13.158;2023-08-06T21:31:51;94304.40;;;12.07;61.06
49915;BME280;35806;47.958;13.158;2023-08-06T21:34:19;94305.58;;;12.08;59.82